createdAt,value
2023-01-13T00:04:01.733Z,99420.34
2023-01-13T00:09:02.909Z,99417.41
2023-01-13T00:14:04.065Z,99406.16
2023-01-13T00:19:05.233Z,99397.97
2023-01-13T00:24:06.380Z,99398.56
2023-01-13T00:29:07.591Z,99406.00
2023-01-13T00:34:08.743Z,99402.72
2023-01-13T00:39:09.932Z,99415.84
2023-01-13T00:44:11.112Z,99409.69
2023-01-13T00:49:12.276Z,99401.66
2023-01-13T00:54:13.412Z,99386.38
2023-01-13T00:59:14.590Z,99386.34
2023-01-13T01:04:15.902Z,99385.38
2023-01-13T01:09:17.030Z,99380.72
2023-01-13T01:14:18.157Z,99388.56
2023-01-13T01:19:19.333Z,99394.25
2023-01-13T01:24:20.512Z,99397.19
2023-01-13T01:29:21.689Z,99393.00
2023-01-13T01:34:23.902Z,99412.16
2023-01-13T01:39:25.036Z,99429.19
2023-01-13T01:44:26.218Z,99414.50
2023-01-13T01:49:27.443Z,99436.97
2023-01-13T01:54:28.622Z,99419.19
2023-01-13T01:59:29.796Z,99449.19
2023-01-13T02:04:30.943Z,99416.88
2023-01-13T02:09:32.094Z,99432.56
2023-01-13T02:14:33.249Z,99409.59
2023-01-13T02:19:34.408Z,99447.53
2023-01-13T02:24:53.770Z,99433.81
2023-01-13T02:30:13.705Z,99425.78
2023-01-13T02:35:14.878Z,99440.13
2023-01-13T02:40:16.018Z,99437.00
2023-01-13T02:45:17.179Z,99444.22
2023-01-13T02:50:18.377Z,99430.53
2023-01-13T02:55:19.554Z,99430.66
2023-01-13T03:00:20.741Z,99431.22
2023-01-13T03:05:21.960Z,99416.31
2023-01-13T03:10:23.207Z,99413.97
2023-01-13T03:15:24.440Z,99402.16
2023-01-13T03:20:25.577Z,99398.16
2023-01-13T03:25:26.791Z,99403.28
2023-01-13T03:30:28.822Z,99413.16
2023-01-13T03:35:30.648Z,99406.19
2023-01-13T03:40:31.844Z,99408.56
2023-01-13T03:45:33.002Z,99399.28
2023-01-13T03:50:34.280Z,99402.69
2023-01-13T03:55:35.502Z,99394.88
2023-01-13T04:00:36.956Z,99353.09
2023-01-13T04:05:38.153Z,99414.94
2023-01-13T04:10:39.309Z,99417.69
2023-01-13T04:15:40.543Z,99421.28
2023-01-13T04:20:41.806Z,99414.00
2023-01-13T04:25:43.028Z,99410.44
2023-01-13T04:30:44.288Z,99416.84
2023-01-13T04:35:45.558Z,99432.16
2023-01-13T04:40:46.755Z,99423.63
2023-01-13T04:45:47.941Z,99409.22
2023-01-13T04:50:49.119Z,99415.41
2023-01-13T04:55:50.304Z,99431.28
2023-01-13T05:00:51.662Z,99417.53
2023-01-13T05:05:52.890Z,99427.63
2023-01-13T05:10:54.159Z,99399.91
2023-01-13T05:16:14.207Z,99406.00
2023-01-13T05:21:34.347Z,99387.69
2023-01-13T05:26:35.504Z,99405.81
2023-01-13T05:31:36.743Z,99401.16
2023-01-13T05:36:37.907Z,99404.06
2023-01-13T05:41:57.679Z,99419.47
2023-01-13T05:46:58.953Z,99426.72
2023-01-13T05:52:00.148Z,99413.03
2023-01-13T05:57:01.368Z,99427.19
2023-01-13T06:02:02.527Z,99426.22
2023-01-13T06:07:03.708Z,99445.59
2023-01-13T06:12:04.911Z,99458.41
2023-01-13T06:17:06.054Z,99438.53
2023-01-13T06:22:07.248Z,99462.53
2023-01-13T06:27:08.674Z,99462.44
2023-01-13T06:32:11.314Z,99460.53
2023-01-13T06:37:12.507Z,99447.91
2023-01-13T06:42:32.381Z,99450.34
2023-01-13T06:47:33.626Z,99453.44
2023-01-13T06:52:34.811Z,99454.03
2023-01-13T06:57:36.060Z,99482.88
2023-01-13T07:02:37.683Z,99470.34
2023-01-13T07:07:39.093Z,99479.50
2023-01-13T07:12:59.166Z,99490.53
2023-01-13T07:18:00.454Z,99488.72
2023-01-13T07:23:01.641Z,99499.75
2023-01-13T07:28:02.805Z,99507.88
2023-01-13T07:33:04.019Z,99498.38
2023-01-13T07:38:05.267Z,99491.50
2023-01-13T07:43:24.980Z,99488.59
2023-01-13T07:48:26.179Z,99500.72
2023-01-13T07:53:27.331Z,99500.34
2023-01-13T07:58:28.601Z,99508.94
2023-01-13T08:03:29.760Z,99509.03
2023-01-13T08:08:30.988Z,99519.50
2023-01-13T08:13:32.177Z,99526.97
2023-01-13T08:18:33.440Z,99520.56
2023-01-13T08:23:34.594Z,99529.41
2023-01-13T08:28:35.792Z,99536.06
2023-01-13T08:33:37.550Z,99549.56
2023-01-13T08:38:38.769Z,99543.25
2023-01-13T08:43:39.953Z,99568.81
2023-01-13T08:48:41.134Z,99559.91
2023-01-13T08:53:42.366Z,99560.69
2023-01-13T08:58:43.553Z,99580.28
2023-01-13T09:03:44.788Z,99569.44
2023-01-13T09:08:45.960Z,99568.28
2023-01-13T09:13:47.188Z,99574.88
2023-01-13T09:18:48.340Z,99574.28
2023-01-13T09:23:49.533Z,99584.16
2023-01-13T09:28:50.794Z,99575.25
2023-01-13T09:34:10.863Z,99586.69
2023-01-13T09:39:12.022Z,99593.84
2023-01-13T09:44:13.244Z,99603.16
2023-01-13T09:49:20.305Z,99592.03
2023-01-13T09:54:21.488Z,99588.22
2023-01-13T09:59:22.772Z,99588.91
2023-01-13T10:04:23.990Z,99595.38
2023-01-13T10:09:25.271Z,99602.38
2023-01-13T10:14:26.449Z,99600.78
2023-01-13T10:19:29.136Z,99602.41
2023-01-13T10:24:30.494Z,99594.16
2023-01-13T10:29:31.795Z,99605.09
2023-01-13T10:34:32.947Z,99589.28
2023-01-13T10:39:34.111Z,99601.13
2023-01-13T10:44:35.298Z,99610.84
2023-01-13T10:49:36.574Z,99607.53
2023-01-13T10:54:37.786Z,99607.31
2023-01-13T10:59:38.962Z,99616.22
2023-01-13T11:04:40.216Z,99622.63
2023-01-13T11:09:41.406Z,99621.88
2023-01-13T11:14:42.636Z,99639.91
2023-01-13T11:19:43.866Z,99634.81
2023-01-13T11:24:45.729Z,99627.75
2023-01-13T11:29:46.919Z,99642.81
2023-01-13T11:34:48.170Z,99647.81
2023-01-13T11:39:49.408Z,99633.88
2023-01-13T11:44:50.555Z,99645.44
2023-01-13T11:49:51.755Z,99643.59
2023-01-13T11:54:52.978Z,99631.97
2023-01-13T11:59:54.197Z,99642.72
2023-01-13T12:04:55.363Z,99641.38
2023-01-13T12:09:56.592Z,99649.38
2023-01-13T12:14:57.819Z,99643.06
2023-01-13T12:19:59.072Z,99629.16
2023-01-13T12:25:00.240Z,99631.47
2023-01-13T12:30:01.415Z,99624.72
2023-01-13T12:35:02.563Z,99631.47
2023-01-13T12:40:03.706Z,99635.97
2023-01-13T12:45:04.877Z,99636.25
2023-01-13T12:50:06.240Z,99636.56
2023-01-13T12:55:07.519Z,99629.44
2023-01-13T13:00:08.685Z,99633.47
2023-01-13T13:05:09.884Z,99651.97
2023-01-13T13:10:11.143Z,99674.72
2023-01-13T13:15:12.425Z,99696.06
2023-01-13T13:20:13.652Z,99705.63
2023-01-13T13:25:14.880Z,99705.25
2023-01-13T13:30:17.176Z,99730.19
2023-01-13T13:35:18.391Z,99723.22
2023-01-13T13:40:38.377Z,99740.06
2023-01-13T13:45:58.240Z,99751.72
2023-01-13T13:51:02.254Z,99751.28
2023-01-13T13:56:03.655Z,99765.81
2023-01-13T14:01:04.959Z,99776.47
2023-01-13T14:06:06.198Z,99780.84
2023-01-13T14:11:07.298Z,99807.34
2023-01-13T14:16:08.549Z,99800.38
2023-01-13T14:21:09.775Z,99809.97
2023-01-13T14:26:14.951Z,99811.22
2023-01-13T14:31:16.186Z,99828.41
2023-01-13T14:36:17.455Z,99824.34
2023-01-13T14:41:18.667Z,99821.63
2023-01-13T14:46:23.027Z,99818.94
2023-01-13T14:51:24.302Z,99826.78
2023-01-13T14:56:27.888Z,99826.03
2023-01-13T15:01:30.443Z,99846.75
2023-01-13T15:06:31.640Z,99846.47
2023-01-13T15:11:32.805Z,99861.91
2023-01-13T15:16:35.014Z,99886.22
2023-01-13T15:21:36.360Z,99877.00
2023-01-13T15:26:37.571Z,99914.94
2023-01-13T15:31:38.771Z,99915.50
2023-01-13T15:36:40.006Z,99916.63
2023-01-13T15:41:59.828Z,99920.69
2023-01-13T15:47:01.031Z,99945.84
2023-01-13T15:52:02.861Z,99948.53
2023-01-13T15:57:04.030Z,99958.22
2023-01-13T16:02:05.188Z,99958.75
2023-01-13T16:07:06.425Z,99967.47
2023-01-13T16:12:07.643Z,99974.28
2023-01-13T16:17:08.801Z,99990.53
2023-01-13T16:22:10.057Z,100004.13
2023-01-13T16:27:11.297Z,100009.34
2023-01-13T16:32:12.503Z,100010.38
2023-01-13T16:37:13.653Z,100008.94
2023-01-13T16:42:14.888Z,100004.06
2023-01-13T16:47:16.383Z,100025.56
2023-01-13T16:52:17.584Z,100034.47
2023-01-13T16:57:18.794Z,100040.47
2023-01-13T17:02:21.142Z,100053.25
2023-01-13T17:07:22.814Z,100059.25
2023-01-13T17:12:23.956Z,100023.13
2023-01-13T17:17:25.160Z,100076.22
2023-01-13T17:22:26.325Z,100081.94
2023-01-13T17:27:27.488Z,100085.06
2023-01-13T17:32:28.883Z,100088.75
2023-01-13T17:37:30.168Z,100106.75
2023-01-13T17:42:31.944Z,100108.31
2023-01-13T17:47:33.120Z,100102.03
2023-01-13T17:52:34.315Z,100104.66
2023-01-13T17:57:35.594Z,100109.56
2023-01-13T18:02:36.812Z,100104.84
2023-01-13T18:07:38.001Z,100117.84
2023-01-13T18:12:39.173Z,100126.66
2023-01-13T18:17:40.313Z,100124.00
2023-01-13T18:23:00.404Z,100128.63
2023-01-13T18:28:04.839Z,100132.00
2023-01-13T18:33:06.058Z,100144.22
2023-01-13T18:38:08.259Z,100147.28
2023-01-13T18:43:09.457Z,100155.13
2023-01-13T18:48:10.669Z,100156.13
2023-01-13T18:53:11.915Z,100164.97
2023-01-13T18:58:13.447Z,100161.22
2023-01-13T19:03:29.460Z,100170.19
2023-01-13T19:08:33.400Z,100168.03
2023-01-13T19:13:34.653Z,100177.72
2023-01-13T19:18:35.868Z,100184.47
2023-01-13T19:23:37.456Z,100181.53
2023-01-13T19:28:41.850Z,100194.88
2023-01-13T19:33:43.098Z,100198.09
2023-01-13T19:38:44.255Z,100197.19
2023-01-13T19:44:20.768Z,100213.16
2023-01-13T19:49:21.906Z,100216.59
2023-01-13T19:54:23.107Z,100236.50
2023-01-13T19:59:29.045Z,100236.34
2023-01-13T20:04:34.011Z,100247.59
2023-01-13T20:09:35.696Z,100247.81
2023-01-13T20:14:36.874Z,100260.59
2023-01-13T20:19:38.132Z,100279.44
2023-01-13T20:24:39.296Z,100281.47
2023-01-13T20:29:40.455Z,100280.63
2023-01-13T20:34:41.690Z,100278.00
2023-01-13T20:39:45.744Z,100285.88
2023-01-13T20:44:47.025Z,100280.59
2023-01-13T20:49:48.246Z,100297.91
2023-01-13T20:54:49.492Z,100312.84
2023-01-13T20:59:50.671Z,100311.25
2023-01-13T21:04:51.851Z,100326.72
2023-01-13T21:09:53.068Z,100318.59
2023-01-13T21:15:13.070Z,100331.97
2023-01-13T21:20:14.199Z,100325.16
2023-01-13T21:25:15.413Z,100334.06
2023-01-13T21:30:17.701Z,100340.06
2023-01-13T21:35:18.858Z,100337.47
2023-01-13T21:40:20.151Z,100341.91
2023-01-13T21:45:40.348Z,100347.38
2023-01-13T21:50:42.140Z,100343.97
2023-01-13T21:55:43.520Z,100363.63
2023-01-13T22:00:44.785Z,100366.50
2023-01-13T22:05:46.533Z,100376.72
2023-01-13T22:11:13.902Z,100372.25
2023-01-13T22:16:15.116Z,100371.72
2023-01-13T22:21:17.777Z,100389.75
2023-01-13T22:26:18.955Z,100373.53
2023-01-13T22:31:21.149Z,100387.88
2023-01-13T22:36:23.844Z,100395.22
2023-01-13T22:41:25.107Z,100386.09
2023-01-13T22:46:26.301Z,100396.03
2023-01-13T22:51:27.567Z,100408.34
2023-01-13T22:56:28.779Z,100415.69
2023-01-13T23:01:29.983Z,100425.38
2023-01-13T23:06:31.267Z,100423.81
2023-01-13T23:11:32.524Z,100437.91
2023-01-13T23:16:33.805Z,100423.28
2023-01-13T23:21:36.049Z,100432.22
2023-01-13T23:26:37.295Z,100420.16
2023-01-13T23:31:38.488Z,100427.25
2023-01-13T23:36:41.651Z,100437.22
2023-01-13T23:41:42.779Z,100454.47
2023-01-13T23:46:43.992Z,100452.97
2023-01-13T23:51:45.178Z,100466.28
2023-01-13T23:56:46.369Z,100457.13
